首页
METAR-TAF:

METAR-TAF

机场 :

埃塞萨皮斯塔里尼部长国际机场

Ezeiza, 阿根廷

纬度: 34-49S, 经度: 058-32W, 海拔: 20米

当前天气观测

该预报发布于42分钟前的17:00 UTC
风速6节,风向西转西北
温度 20°C
湿度 78%
气压 1013 hPa
能見度: 8000

METAR: SAEZ 241700Z 29006KT 8000 NSC 20/16 Q1013 NOSIG

时间: 14:42 (17:42 UTC)

预报

该预报发布于8小时和42分钟前的09:00 UTC
预报有效从24日的 09点(UTC)到 25日的 06点(UTC)
风速10节,风向
能见度10公里或以上
1500米以下无云,无积雨云
短暂存在
从 24日的 09点(UTC)到 24日的 13点(UTC)
风速5节,风向
能見度: 5000
轻雾
短暂存在
从 24日的 14点(UTC)到 24日的 20点(UTC)
能見度: 5000
散云层高于3000英尺
少量云层高于4000英尺, 积雨云.
雷暴, 雨
成为
从 25日的 00点(UTC)到 25日的 02点(UTC)
风速7节,风向西

TAF: SAEZ 240900Z 2409/2506 36010KT CAVOK TX17/2418Z TN08/2506Z TEMPO 2409/2413 36005KT 5000 BR NSC TEMPO 2414/2420 5000 TSRA SCT030 FEW040CB BECMG 2500/2502 27007KT

超过4000个机场的气象观测和天气预报(METAR&TAF报告)。

可查询的气象台以黄色和红色小点在地图上表示。

将鼠标移到小点上方,可查看气象台名称。

然后点击查看天气观测和预报。

如需切换地图:点击带黑十字的绿色按钮放大地图;点击带横线的绿色按钮缩小地图;或者点击绿色箭头查看邻近地区的地图。


METAR-TAF: